AQQ10 IFIS: Internet Flight Information System
logo dgac
Viernes 01 de Julio del 2022
Buscar por aerodromo o helipuerto
Ingrese nombre de aeródromo, localidad o designador OACI:
METAR del 01-07-2022 a las 14:00 UTC
Para mayor información visite www.meteochile.cl
METAR SCCI 011400Z 30011KT CAVOK M01/M04 Q0998 NOSIG
Viento: dirección 300 grados, velocidad 11 nudos
Visibilidad: 10 km o más,
    sin nubes bajo los 5.000 pies o bajo del MSA (Mínimo de Seguridad del Aeródromo),
    sin cumulonimbus, y sin fenómenos de tiempo significativo en el aeródromo o alrededores
Temperatura: -1 °C
Rocío: -4 °C
Humedad_relativa: 80%
Presión: 998 hPa
No se esperan cambios significativos en las próximas 2 horas
METAR del 01-07-2022 a las 13:00 UTC
Para mayor información visite www.meteochile.cl
METAR SCCI 011300Z 31013KT CAVOK M01/M04 Q0998 NOSIG
Viento: dirección 310 grados, velocidad 13 nudos
Visibilidad: 10 km o más,
    sin nubes bajo los 5.000 pies o bajo del MSA (Mínimo de Seguridad del Aeródromo),
    sin cumulonimbus, y sin fenómenos de tiempo significativo en el aeródromo o alrededores
Temperatura: -1 °C
Rocío: -4 °C
Humedad_relativa: 80%
Presión: 998 hPa
No se esperan cambios significativos en las próximas 2 horas
METAR del 01-07-2022 a las 12:00 UTC
Para mayor información visite www.meteochile.cl
METAR SCCI 011200Z 30011KT 9999 FEW030 M02/M04 Q0998 NOSIG
Viento: dirección 300 grados, velocidad 11 nudos
Visibilidad: 10 km o más
Nubes: Escasa nubosidad a 3000 pies sobre el nivel del aeródromo
Temperatura: -2 °C
Rocío: -4 °C
Humedad_relativa: 86%
Presión: 998 hPa
No se esperan cambios significativos en las próximas 2 horas
METAR del 01-07-2022 a las 11:00 UTC
Para mayor información visite www.meteochile.cl
METAR SCCI 011100Z 29007KT 9999 SCT030 M03/M04 Q0999 NOSIG
Viento: dirección 290 grados, velocidad 7 nudos
Visibilidad: 10 km o más
Nubes: Nubosidad parcial a 3000 pies sobre el nivel del aeródromo
Temperatura: -3 °C
Rocío: -4 °C
Humedad_relativa: 93%
Presión: 999 hPa
No se esperan cambios significativos en las próximas 2 horas
METAR del 01-07-2022 a las 10:00 UTC
Para mayor información visite www.meteochile.cl
METAR SCCI 011000Z 31010KT 9999 BKN030 M01/M04 Q0999 NOSIG
Viento: dirección 310 grados, velocidad 10 nudos
Visibilidad: 10 km o más
Nubes: Nublado a 3000 pies sobre el nivel del aeródromo
Temperatura: -1 °C
Rocío: -4 °C
Humedad_relativa: 80%
Presión: 999 hPa
No se esperan cambios significativos en las próximas 2 horas
METAR del 01-07-2022 a las 09:00 UTC
Para mayor información visite www.meteochile.cl
METAR SCCI 010900Z 33008KT 9999 SCT030 M02/M04 Q0999 NOSIG
Viento: dirección 330 grados, velocidad 8 nudos
Visibilidad: 10 km o más
Nubes: Nubosidad parcial a 3000 pies sobre el nivel del aeródromo
Temperatura: -2 °C
Rocío: -4 °C
Humedad_relativa: 86%
Presión: 999 hPa
No se esperan cambios significativos en las próximas 2 horas
METAR del 01-07-2022 a las 08:00 UTC
Para mayor información visite www.meteochile.cl
METAR SCCI 010800Z 31010KT 9999 SCT030 M01/M03 Q0999 NOSIG
Viento: dirección 310 grados, velocidad 10 nudos
Visibilidad: 10 km o más
Nubes: Nubosidad parcial a 3000 pies sobre el nivel del aeródromo
Temperatura: -1 °C
Rocío: -3 °C
Humedad_relativa: 86%
Presión: 999 hPa
No se esperan cambios significativos en las próximas 2 horas
METAR del 01-07-2022 a las 07:00 UTC
Para mayor información visite www.meteochile.cl
METAR SCCI 010700Z 32008KT 9999 BKN030 M01/M03 Q0999 NOSIG
Viento: dirección 320 grados, velocidad 8 nudos
Visibilidad: 10 km o más
Nubes: Nublado a 3000 pies sobre el nivel del aeródromo
Temperatura: -1 °C
Rocío: -3 °C
Humedad_relativa: 86%
Presión: 999 hPa
No se esperan cambios significativos en las próximas 2 horas
METAR del 01-07-2022 a las 06:00 UTC
Para mayor información visite www.meteochile.cl
METAR SCCI 010600Z 28005KT 9999 SCT030 M02/M03 Q0999 NOSIG
Viento: dirección 280 grados, velocidad 5 nudos
Visibilidad: 10 km o más
Nubes: Nubosidad parcial a 3000 pies sobre el nivel del aeródromo
Temperatura: -2 °C
Rocío: -3 °C
Humedad_relativa: 93%
Presión: 999 hPa
No se esperan cambios significativos en las próximas 2 horas
METAR del 01-07-2022 a las 05:00 UTC
Para mayor información visite www.meteochile.cl
METAR SCCI 010500Z 30006KT 9999 SCT030 M03/M04 Q0999 NOSIG
Viento: dirección 300 grados, velocidad 6 nudos
Visibilidad: 10 km o más
Nubes: Nubosidad parcial a 3000 pies sobre el nivel del aeródromo
Temperatura: -3 °C
Rocío: -4 °C
Humedad_relativa: 93%
Presión: 999 hPa
No se esperan cambios significativos en las próximas 2 horas